createdAt,value
2023-02-11T00:00:45.518Z,7.75
2023-02-11T00:03:12.923Z,5.47
2023-02-11T00:05:40.278Z,7.03
2023-02-11T00:08:07.626Z,6.15
2023-02-11T00:10:34.910Z,9.05
2023-02-11T00:13:02.202Z,6.72
2023-02-11T00:15:29.525Z,7.50
2023-02-11T00:17:56.815Z,8.88
2023-02-11T00:20:24.038Z,6.97
2023-02-11T00:22:51.276Z,7.72
2023-02-11T00:25:18.490Z,8.90
2023-02-11T00:27:45.789Z,8.30
2023-02-11T00:30:13.608Z,7.70
2023-02-11T00:32:42.808Z,7.40
2023-02-11T00:35:10.033Z,7.43
2023-02-11T00:37:39.606Z,9.45
2023-02-11T00:40:07.482Z,6.40
2023-02-11T00:42:35.888Z,7.47
2023-02-11T00:45:03.795Z,7.57
2023-02-11T00:47:32.122Z,7.32
2023-02-11T00:50:01.186Z,6.93
2023-02-11T00:52:32.114Z,6.93
2023-02-11T00:54:59.395Z,8.20
2023-02-11T00:57:26.624Z,5.35
2023-02-11T00:59:53.904Z,6.13
2023-02-11T01:02:21.163Z,6.88
2023-02-11T01:04:48.684Z,6.18
2023-02-11T01:07:16.054Z,6.90
2023-02-11T01:09:43.380Z,7.50
2023-02-11T01:12:10.719Z,7.70
2023-02-11T01:14:41.421Z,6.80
2023-02-11T01:17:08.753Z,7.22
2023-02-11T01:19:37.866Z,7.78
2023-02-11T01:22:07.718Z,6.93
2023-02-11T01:24:35.092Z,7.13
2023-02-11T01:27:02.508Z,7.05
2023-02-11T01:29:30.199Z,7.30
2023-02-11T01:31:57.701Z,7.20
2023-02-11T01:34:26.320Z,7.82
2023-02-11T01:36:58.879Z,6.07
2023-02-11T01:39:27.049Z,7.07
2023-02-11T01:41:54.681Z,6.20
2023-02-11T01:44:40.920Z,7.97
2023-02-11T01:47:09.613Z,7.28
2023-02-11T01:49:40.182Z,5.43
2023-02-11T01:55:09.076Z,7.28
2023-02-11T01:57:38.294Z,5.95
2023-02-11T02:03:05.851Z,6.13
2023-02-11T02:11:07.915Z,7.45
2023-02-11T02:13:37.773Z,4.93
2023-02-11T02:16:31.268Z,7.88
2023-02-11T02:27:26.552Z,7.97
2023-02-11T02:35:34.872Z,7.32
2023-02-11T02:38:09.066Z,7.72
2023-02-11T02:40:57.649Z,7.65
2023-02-11T02:43:26.853Z,7.47
2023-02-11T02:45:54.457Z,6.63
2023-02-11T02:48:32.037Z,5.85
2023-02-11T02:51:29.513Z,6.45
2023-02-11T03:02:32.263Z,6.25
2023-02-11T03:10:40.475Z,6.20
2023-02-11T03:13:08.531Z,5.65
2023-02-11T03:15:40.886Z,6.28
2023-02-11T03:18:10.564Z,5.95
2023-02-11T03:20:41.204Z,5.95
2023-02-11T03:25:53.483Z,5.65
2023-02-11T03:28:31.277Z,5.32
2023-02-11T03:31:15.429Z,5.10
2023-02-11T03:36:34.938Z,4.97
2023-02-11T03:39:04.059Z,2.97
2023-02-11T03:41:32.201Z,4.25
2023-02-11T03:44:00.121Z,5.13
2023-02-11T03:46:32.225Z,4.32
2023-02-11T03:49:04.787Z,5.05
2023-02-11T03:51:33.446Z,5.22
2023-02-11T03:54:03.426Z,4.30
2023-02-11T03:56:33.568Z,4.43
2023-02-11T03:59:00.894Z,4.28
2023-02-11T04:01:28.671Z,4.07
2023-02-11T04:03:56.069Z,5.30
2023-02-11T04:06:23.620Z,3.50
2023-02-11T04:08:51.064Z,3.92
2023-02-11T04:11:18.827Z,4.10
2023-02-11T04:13:46.180Z,3.58
2023-02-11T04:16:13.471Z,3.80
2023-02-11T04:18:40.916Z,4.28
2023-02-11T04:21:08.302Z,3.50
2023-02-11T04:23:35.718Z,4.13
2023-02-11T04:26:03.545Z,2.88
2023-02-11T04:28:31.851Z,3.65
2023-02-11T04:30:59.326Z,2.83
2023-02-11T04:33:26.928Z,3.40
2023-02-11T04:35:54.510Z,2.60
2023-02-11T04:38:24.378Z,4.45
2023-02-11T04:40:51.844Z,3.05
2023-02-11T04:43:19.483Z,3.28
2023-02-11T04:45:46.871Z,2.72
2023-02-11T04:48:14.162Z,2.65
2023-02-11T04:50:42.151Z,3.17
2023-02-11T04:53:09.609Z,3.72
2023-02-11T04:55:37.080Z,3.85
2023-02-11T04:58:04.397Z,3.60
2023-02-11T05:00:32.125Z,3.10
2023-02-11T05:02:59.587Z,3.88
2023-02-11T05:05:27.333Z,3.05
2023-02-11T05:07:54.726Z,3.15
2023-02-11T05:10:22.149Z,3.95
2023-02-11T05:12:49.972Z,6.30
2023-02-11T05:15:17.487Z,5.88
2023-02-11T05:17:44.906Z,6.30
2023-02-11T05:20:12.527Z,4.63
2023-02-11T05:22:39.822Z,3.78
2023-02-11T05:25:07.887Z,4.20
2023-02-11T05:27:35.398Z,3.53
2023-02-11T05:30:03.179Z,3.95
2023-02-11T05:32:31.439Z,3.25
2023-02-11T05:34:58.986Z,3.60
2023-02-11T05:37:26.403Z,4.03
2023-02-11T05:39:53.909Z,4.10
2023-02-11T05:42:21.298Z,3.30
2023-02-11T05:44:50.610Z,2.45
2023-02-11T05:47:18.262Z,3.28
2023-02-11T05:49:45.599Z,3.53
2023-02-11T05:52:13.169Z,3.40
2023-02-11T05:54:40.582Z,3.63
2023-02-11T05:57:08.067Z,2.28
2023-02-11T05:59:35.471Z,2.60
2023-02-11T06:02:03.123Z,3.58
2023-02-11T06:04:30.708Z,1.83
2023-02-11T06:06:58.121Z,3.33
2023-02-11T06:09:25.780Z,2.92
2023-02-11T06:11:53.653Z,3.58
2023-02-11T06:14:21.306Z,2.00
2023-02-11T06:16:48.705Z,2.65
2023-02-11T06:19:16.293Z,3.13
2023-02-11T06:21:44.647Z,3.75
2023-02-11T06:24:12.826Z,2.97
2023-02-11T06:26:40.164Z,3.10
2023-02-11T06:29:07.681Z,3.60
2023-02-11T06:31:35.226Z,2.40
2023-02-11T06:34:02.664Z,2.67
2023-02-11T06:36:30.058Z,2.75
2023-02-11T06:38:57.548Z,2.78
2023-02-11T06:41:24.947Z,3.28
2023-02-11T06:43:53.185Z,2.58
2023-02-11T06:46:20.673Z,3.05
2023-02-11T06:48:48.131Z,3.13
2023-02-11T06:51:16.193Z,2.80
2023-02-11T06:53:46.431Z,3.17
2023-02-11T06:56:17.906Z,2.08
2023-02-11T06:58:46.393Z,2.95
2023-02-11T07:01:15.838Z,1.92
2023-02-11T07:03:44.880Z,2.85
2023-02-11T07:06:14.944Z,2.28
2023-02-11T07:08:43.404Z,3.13
2023-02-11T07:11:13.348Z,3.38
2023-02-11T07:13:41.069Z,3.42
2023-02-11T07:16:11.637Z,3.00
2023-02-11T07:18:39.396Z,4.05
2023-02-11T07:21:09.227Z,3.53
2023-02-11T07:23:37.132Z,3.58
2023-02-11T07:26:06.986Z,3.55
2023-02-11T07:28:35.408Z,2.90
2023-02-11T07:31:13.323Z,2.88
2023-02-11T07:33:41.676Z,2.67
2023-02-11T07:36:10.818Z,2.00
2023-02-11T07:38:38.999Z,3.45
2023-02-11T07:41:09.597Z,3.20
2023-02-11T07:43:37.986Z,2.95
2023-02-11T07:46:10.660Z,3.63
2023-02-11T07:48:38.381Z,4.28
2023-02-11T07:51:15.778Z,3.42
2023-02-11T07:53:43.822Z,4.35
2023-02-11T07:56:12.227Z,2.80
2023-02-11T07:58:39.698Z,2.65
2023-02-11T08:01:09.559Z,3.22
2023-02-11T08:03:37.542Z,2.22
2023-02-11T08:06:06.709Z,3.75
2023-02-11T08:08:34.247Z,2.42
2023-02-11T08:11:13.383Z,2.53
2023-02-11T08:13:41.112Z,3.25
2023-02-11T08:16:09.018Z,2.65
2023-02-11T08:18:36.726Z,4.35
2023-02-11T08:21:06.471Z,3.63
2023-02-11T08:23:34.291Z,4.03
2023-02-11T08:26:04.246Z,3.83
2023-02-11T08:28:31.892Z,4.70
2023-02-11T08:31:06.365Z,3.65
2023-02-11T08:33:34.302Z,3.33
2023-02-11T08:36:02.594Z,4.65
2023-02-11T08:38:29.968Z,4.22
2023-02-11T08:41:00.367Z,5.13
2023-02-11T08:43:27.664Z,4.82
2023-02-11T08:45:54.994Z,3.03
2023-02-11T08:48:22.236Z,3.10
2023-02-11T08:50:49.543Z,3.47
2023-02-11T08:53:16.907Z,3.92
2023-02-11T08:55:53.793Z,3.33
2023-02-11T08:58:22.209Z,2.15
2023-02-11T09:00:50.437Z,3.58
2023-02-11T09:03:18.543Z,4.25
2023-02-11T09:05:49.117Z,3.72
2023-02-11T09:08:17.070Z,3.80
2023-02-11T09:10:44.640Z,2.63
2023-02-11T09:13:12.199Z,3.80
2023-02-11T09:15:39.721Z,1.40
2023-02-11T09:18:07.760Z,2.22
2023-02-11T09:20:35.288Z,3.00
2023-02-11T09:23:02.810Z,2.70
2023-02-11T09:25:30.601Z,3.38
2023-02-11T09:27:57.984Z,2.72
2023-02-11T09:30:25.469Z,2.88
2023-02-11T09:32:52.870Z,4.00
2023-02-11T09:35:20.193Z,4.15
2023-02-11T09:37:47.587Z,2.75
2023-02-11T09:40:15.856Z,2.90
2023-02-11T09:45:27.024Z,3.42
2023-02-11T09:48:16.719Z,3.00
2023-02-11T09:50:55.354Z,3.80
2023-02-11T09:53:28.310Z,3.63
2023-02-11T09:56:00.758Z,3.28
2023-02-11T09:58:31.073Z,2.90
2023-02-11T10:01:23.784Z,2.60
2023-02-11T10:10:10.587Z,2.65
2023-02-11T10:12:51.001Z,2.42
2023-02-11T10:15:26.002Z,3.45
2023-02-11T10:20:54.849Z,3.28
2023-02-11T10:26:00.245Z,3.13
2023-02-11T10:28:33.995Z,4.20
2023-02-11T10:31:04.282Z,3.22
2023-02-11T10:33:37.541Z,2.65
2023-02-11T10:36:05.228Z,2.33
2023-02-11T10:38:34.121Z,3.03
2023-02-11T10:41:01.508Z,2.83
2023-02-11T10:43:31.059Z,2.65
2023-02-11T10:45:59.619Z,4.05
2023-02-11T10:48:49.796Z,2.80
2023-02-11T10:51:20.519Z,0.73
2023-02-11T10:53:51.979Z,2.30
2023-02-11T10:56:25.997Z,3.03
2023-02-11T10:59:03.055Z,2.20
2023-02-11T11:01:50.927Z,3.95
2023-02-11T11:04:42.602Z,1.88
2023-02-11T11:10:02.778Z,3.53
2023-02-11T11:12:43.364Z,1.65
2023-02-11T11:17:47.192Z,4.22
2023-02-11T11:22:52.138Z,2.60
2023-02-11T11:25:22.559Z,2.30
2023-02-11T11:27:51.973Z,2.80
2023-02-11T11:30:19.715Z,3.63
2023-02-11T11:32:47.386Z,2.15
2023-02-11T11:35:27.960Z,2.92
2023-02-11T11:38:01.396Z,2.63
2023-02-11T11:40:31.858Z,2.92
2023-02-11T11:43:23.242Z,3.60
2023-02-11T11:45:56.800Z,3.60
2023-02-11T11:51:14.154Z,1.63
2023-02-11T11:53:46.213Z,1.75
2023-02-11T11:56:17.629Z,2.90
2023-02-11T11:58:45.071Z,2.35
2023-02-11T12:01:41.920Z,2.40
2023-02-11T12:18:23.081Z,2.75
2023-02-11T12:24:16.313Z,4.55
2023-02-11T12:27:24.097Z,4.47
2023-02-11T12:30:31.025Z,1.88
2023-02-11T12:33:10.965Z,1.88
2023-02-11T12:41:58.818Z,3.85
2023-02-11T12:53:01.396Z,3.47
2023-02-11T12:55:31.671Z,3.90
2023-02-11T12:57:59.967Z,3.45
2023-02-11T13:00:55.417Z,4.38
2023-02-11T13:03:34.209Z,4.05
2023-02-11T13:06:07.265Z,3.03
2023-02-11T13:08:39.459Z,3.40
2023-02-11T13:16:58.811Z,2.90
2023-02-11T13:19:35.740Z,3.25
2023-02-11T13:27:42.887Z,2.47
2023-02-11T13:30:33.935Z,3.85
2023-02-11T13:35:41.552Z,7.13
2023-02-11T13:38:26.745Z,4.78
2023-02-11T13:41:34.096Z,4.53
2023-02-11T13:47:00.261Z,3.28
2023-02-11T13:52:29.615Z,3.10
2023-02-11T13:55:06.445Z,3.83
2023-02-11T13:57:36.168Z,3.15
2023-02-11T14:03:43.941Z,3.58
2023-02-11T14:11:51.208Z,2.53
2023-02-11T14:19:41.798Z,5.15
2023-02-11T14:24:54.657Z,4.68
2023-02-11T14:41:26.646Z,3.13
2023-02-11T14:44:00.444Z,4.10
2023-02-11T14:46:30.920Z,4.85
2023-02-11T14:49:01.203Z,3.53
2023-02-11T14:54:26.970Z,2.90
2023-02-11T15:00:07.252Z,2.97
2023-02-11T15:02:37.569Z,3.58
2023-02-11T15:05:27.361Z,1.92
2023-02-11T15:07:59.897Z,2.83
2023-02-11T15:13:07.024Z,4.72
2023-02-11T15:15:37.355Z,2.45
2023-02-11T15:18:05.900Z,3.42
2023-02-11T15:20:34.448Z,3.00
2023-02-11T15:23:07.992Z,4.18
2023-02-11T15:25:44.230Z,2.40
2023-02-11T15:28:22.842Z,3.10
2023-02-11T15:30:59.597Z,1.85
2023-02-11T15:33:30.288Z,2.53
2023-02-11T15:35:59.316Z,3.40
2023-02-11T15:38:27.517Z,3.40
2023-02-11T15:40:58.908Z,3.00
2023-02-11T15:43:49.217Z,2.55
2023-02-11T15:46:21.775Z,3.55
2023-02-11T15:48:53.912Z,2.45
2023-02-11T15:51:29.849Z,3.40
2023-02-11T15:53:59.968Z,3.22
2023-02-11T15:56:33.330Z,2.80
2023-02-11T15:59:10.510Z,2.92
2023-02-11T16:01:40.244Z,1.92
2023-02-11T16:04:09.382Z,2.28
2023-02-11T16:06:41.124Z,2.35
2023-02-11T16:19:46.800Z,2.25
2023-02-11T16:22:21.370Z,3.80
2023-02-11T16:24:51.144Z,3.72
2023-02-11T16:27:25.043Z,2.28
2023-02-11T16:29:53.512Z,1.98
2023-02-11T16:32:24.332Z,1.92
2023-02-11T16:34:54.289Z,3.03
2023-02-11T16:37:22.311Z,2.38
2023-02-11T16:39:50.012Z,2.80
2023-02-11T16:42:18.024Z,3.25
2023-02-11T16:44:46.124Z,3.20
2023-02-11T16:47:22.111Z,3.22
2023-02-11T16:49:50.046Z,3.47
2023-02-11T16:52:19.252Z,3.42
2023-02-11T16:54:47.685Z,2.53
2023-02-11T16:57:18.269Z,3.83
2023-02-11T16:59:46.812Z,3.65
2023-02-11T17:02:24.116Z,3.95
2023-02-11T17:04:54.352Z,4.63
2023-02-11T17:07:23.125Z,4.00
2023-02-11T17:09:52.124Z,2.00
2023-02-11T17:12:20.828Z,4.78
2023-02-11T17:14:48.597Z,3.30
2023-02-11T17:17:18.482Z,4.80
2023-02-11T17:19:48.677Z,3.10
2023-02-11T17:22:16.915Z,4.13
2023-02-11T17:24:44.571Z,4.60
2023-02-11T17:27:14.286Z,2.65
2023-02-11T17:29:42.494Z,3.83
2023-02-11T17:32:10.436Z,2.70
2023-02-11T17:34:38.130Z,3.33
2023-02-11T17:37:09.897Z,2.25
2023-02-11T17:39:39.123Z,5.13
2023-02-11T17:42:07.582Z,4.72
2023-02-11T17:44:35.218Z,4.60
2023-02-11T17:47:02.910Z,4.85
2023-02-11T17:49:33.618Z,4.15
2023-02-11T17:52:01.521Z,5.30
2023-02-11T17:54:29.464Z,4.07
2023-02-11T17:56:58.455Z,3.45
2023-02-11T17:59:27.123Z,4.03
2023-02-11T18:01:55.368Z,2.30
2023-02-11T18:04:23.094Z,2.63
2023-02-11T18:06:53.800Z,5.00
2023-02-11T18:09:21.724Z,6.22
2023-02-11T18:11:51.297Z,4.20
2023-02-11T18:14:20.969Z,3.17
2023-02-11T18:16:53.898Z,5.05
2023-02-11T18:19:22.334Z,2.38
2023-02-11T18:21:51.869Z,3.20
2023-02-11T18:24:19.677Z,4.20
2023-02-11T18:26:47.444Z,5.03
2023-02-11T18:29:15.998Z,5.40
2023-02-11T18:31:43.709Z,3.65
2023-02-11T18:34:12.525Z,3.28
2023-02-11T18:36:40.577Z,5.05
2023-02-11T18:39:09.319Z,5.50
2023-02-11T18:41:37.734Z,5.05
2023-02-11T18:44:05.608Z,6.07
2023-02-11T18:46:34.066Z,5.97
2023-02-11T18:49:01.973Z,4.25
2023-02-11T18:51:33.115Z,5.20
2023-02-11T18:54:01.903Z,5.40
2023-02-11T18:56:30.580Z,4.65
2023-02-11T18:59:01.547Z,6.18
2023-02-11T19:01:31.719Z,5.30
2023-02-11T19:04:03.686Z,3.95
2023-02-11T19:06:38.233Z,2.72
2023-02-11T19:09:11.208Z,5.13
2023-02-11T19:11:47.862Z,3.85
2023-02-11T19:14:20.950Z,3.80
2023-02-11T19:16:51.141Z,4.07
2023-02-11T19:19:20.675Z,4.47
2023-02-11T19:21:49.649Z,2.03
2023-02-11T19:24:20.422Z,6.50
2023-02-11T19:26:49.843Z,3.60
2023-02-11T19:29:18.223Z,7.15
2023-02-11T19:31:46.482Z,5.28
2023-02-11T19:34:16.681Z,6.28
2023-02-11T19:36:44.683Z,5.78
2023-02-11T19:39:12.807Z,4.97
2023-02-11T19:41:41.405Z,5.85
2023-02-11T19:44:10.396Z,3.20
2023-02-11T19:46:41.177Z,5.43
2023-02-11T19:49:10.324Z,4.00
2023-02-11T19:51:39.739Z,5.03
2023-02-11T19:54:07.968Z,5.72
2023-02-11T19:56:36.193Z,2.92
2023-02-11T19:59:03.970Z,6.25
2023-02-11T20:01:31.902Z,2.92
2023-02-11T20:03:59.546Z,5.15
2023-02-11T20:06:30.095Z,5.03
2023-02-11T20:09:01.007Z,5.20
2023-02-11T20:11:30.896Z,5.10
2023-02-11T20:13:59.649Z,3.65
2023-02-11T20:16:46.185Z,6.25
2023-02-11T20:19:18.624Z,3.08
2023-02-11T20:21:48.322Z,5.40
2023-02-11T20:24:20.230Z,3.58
2023-02-11T20:26:48.948Z,5.65
2023-02-11T20:29:18.389Z,4.00
2023-02-11T20:31:46.732Z,3.97
2023-02-11T20:34:15.027Z,6.18
2023-02-11T20:36:43.241Z,5.80
2023-02-11T20:39:12.148Z,4.28
2023-02-11T20:41:40.668Z,4.70
2023-02-11T20:44:10.980Z,4.35
2023-02-11T20:46:42.323Z,4.10
2023-02-11T20:49:12.950Z,3.92
2023-02-11T20:51:42.005Z,4.93
2023-02-11T20:54:13.608Z,5.03
2023-02-11T20:56:42.205Z,4.40
2023-02-11T20:59:10.377Z,3.67
2023-02-11T21:01:41.052Z,3.10
2023-02-11T21:04:14.131Z,5.35
2023-02-11T21:06:45.123Z,5.75
2023-02-11T21:09:16.098Z,5.97
2023-02-11T21:11:44.611Z,5.43
2023-02-11T21:14:13.130Z,5.10
2023-02-11T21:16:41.180Z,4.30
2023-02-11T21:19:09.050Z,3.63
2023-02-11T21:21:38.170Z,3.88
2023-02-11T21:24:08.326Z,5.07
2023-02-11T21:26:36.408Z,4.20
2023-02-11T21:29:05.780Z,5.68
2023-02-11T21:31:35.396Z,3.47
2023-02-11T21:34:03.709Z,5.82
2023-02-11T21:36:31.451Z,3.47
2023-02-11T21:39:00.498Z,5.35
2023-02-11T21:41:28.083Z,4.20
2023-02-11T21:43:55.985Z,4.82
2023-02-11T21:46:24.047Z,3.47
2023-02-11T21:48:51.991Z,3.88
2023-02-11T21:51:22.198Z,4.55
2023-02-11T21:53:54.545Z,5.82
2023-02-11T21:58:53.817Z,2.70
2023-02-11T22:01:25.438Z,3.08
2023-02-11T22:03:53.398Z,5.07
2023-02-11T22:06:26.328Z,4.93
2023-02-11T22:08:55.063Z,4.85
2023-02-11T22:11:23.371Z,4.30
2023-02-11T22:13:55.784Z,5.18
2023-02-11T22:16:23.769Z,5.10
2023-02-11T22:18:51.989Z,5.90
2023-02-11T22:21:22.906Z,5.60
2023-02-11T22:23:51.364Z,4.43
2023-02-11T22:26:21.346Z,6.68
2023-02-11T22:28:50.502Z,4.43
2023-02-11T22:31:22.055Z,3.95
2023-02-11T22:33:49.991Z,6.05
2023-02-11T22:39:01.106Z,6.28
2023-02-11T22:41:28.893Z,5.80
2023-02-11T22:43:56.238Z,6.18
2023-02-11T22:46:23.771Z,4.50
2023-02-11T22:48:51.644Z,4.47
2023-02-11T22:51:22.702Z,4.85
2023-02-11T22:53:53.559Z,3.70
2023-02-11T22:56:21.704Z,4.95
2023-02-11T22:58:51.112Z,6.07
2023-02-11T23:01:18.740Z,5.03
2023-02-11T23:03:46.370Z,3.95
2023-02-11T23:06:13.986Z,3.47
2023-02-11T23:08:43.186Z,5.25
2023-02-11T23:11:14.600Z,1.65
2023-02-11T23:13:42.868Z,4.13
2023-02-11T23:16:14.224Z,5.03
2023-02-11T23:18:43.310Z,5.82
2023-02-11T23:21:16.729Z,4.32
2023-02-11T23:23:44.616Z,5.15
2023-02-11T23:26:13.944Z,4.63
2023-02-11T23:28:41.783Z,5.82
2023-02-11T23:31:30.705Z,4.38
2023-02-11T23:33:58.122Z,6.10
2023-02-11T23:36:25.631Z,4.20
2023-02-11T23:38:53.143Z,6.32
2023-02-11T23:41:21.030Z,3.22
2023-02-11T23:43:51.280Z,6.40
2023-02-11T23:46:19.348Z,6.50
2023-02-11T23:48:46.837Z,4.18
2023-02-11T23:51:14.299Z,4.53
2023-02-11T23:53:41.772Z,6.10
2023-02-11T23:56:11.561Z,5.53
2023-02-11T23:58:39.006Z,4.43
